Beamsville

*Note: All times are displayed in the local standard time of the station location.
**Rain - Equipment is designed to accurately record liquid precipitation; under conditions when precipitation is not in liquid form, the data displayed may not properly reflect rainfall values.

Date Max Temp
(°C)
Min Temp
(°C)
Avg Temp
(°C)
Rain (mm) Avg RH (%)
Mon, Apr 23, 2018 12.4 0.0 7.3 0.0 78.2
Sun, Apr 22, 2018 15.9 -1.0 8.6 0.0 61.7
Sat, Apr 21, 2018 14.5 -1.6 6.3 0.0 69.9
Fri, Apr 20, 2018 8.2 -0.6 3.0 0.0 80.2
Thu, Apr 19, 2018 4.2 0.7 2.0 0.0 86.1
Wed, Apr 18, 2018 3.3 0.5 1.9 0.0 96.5
Tue, Apr 17, 2018 1.6 -1.4 0.5 0.0 93.8
DateTime Avg Temp (°C) Rain (mm) RH (%)
Tue, Apr 24, 2018 18:00 12.7 0.4 99.0
Tue, Apr 24, 2018 17:00 13.9 0.0 88.3
Tue, Apr 24, 2018 16:00 15.7 0.0 72.0
Tue, Apr 24, 2018 15:00 17.0 0.0 61.8
Tue, Apr 24, 2018 14:00 17.0 0.0 62.0
Tue, Apr 24, 2018 13:00 16.3 0.0 62.5
Tue, Apr 24, 2018 12:00 15.2 0.0 67.5
Tue, Apr 24, 2018 11:00 13.6 0.0 76.8
Tue, Apr 24, 2018 10:00 13.0 0.0 84.0
Tue, Apr 24, 2018 09:00 13.0 0.0 85.0
Tue, Apr 24, 2018 08:00 12.5 0.0 82.3
Tue, Apr 24, 2018 07:00 12.0 0.0 83.5
Tue, Apr 24, 2018 06:00 12.1 0.0 81.5
Tue, Apr 24, 2018 05:00 12.1 0.0 79.3
Tue, Apr 24, 2018 04:00 11.1 0.0 79.0
Tue, Apr 24, 2018 03:00 9.3 0.0 81.0
Tue, Apr 24, 2018 02:00 6.4 0.0 89.8
Tue, Apr 24, 2018 01:00 4.5 0.0 100.0
Tue, Apr 24, 2018 00:00 4.8 0.0 94.0
Mon, Apr 23, 2018 23:00 5.7 0.0 86.5
Mon, Apr 23, 2018 22:00 6.0 0.0 84.0
Mon, Apr 23, 2018 21:00 6.4 0.0 82.8
Mon, Apr 23, 2018 20:00 7.3 0.0 79.8
Mon, Apr 23, 2018 19:00 8.7 0.0 76.5
Mon, Apr 23, 2018 18:00 9.9 0.0 73.5
Mon, Apr 23, 2018 17:00 11.0 0.0 70.3
Mon, Apr 23, 2018 16:00 12.1 0.0 66.0
Mon, Apr 23, 2018 15:00 12.3 0.0 68.8
Mon, Apr 23, 2018 14:00 11.8 0.0 69.5
Mon, Apr 23, 2018 13:00 12.0 0.0 67.3
Mon, Apr 23, 2018 12:00 11.1 0.0 66.3
Mon, Apr 23, 2018 11:00 10.1 0.0 79.3
Mon, Apr 23, 2018 10:00 8.9 0.0 79.3
Mon, Apr 23, 2018 09:00 6.5 0.0 83.8
Mon, Apr 23, 2018 08:00 4.8 0.0 84.0
Mon, Apr 23, 2018 07:00 0.5 0.0 98.5
Mon, Apr 23, 2018 06:00 2.3 0.0 88.0
Mon, Apr 23, 2018 05:00 1.7 0.0 92.0
Mon, Apr 23, 2018 04:00 6.1 0.0 65.3
Mon, Apr 23, 2018 03:00 7.5 0.0 55.0
Mon, Apr 23, 2018 02:00 3.2 0.0 82.5
Mon, Apr 23, 2018 01:00 3.5 0.0 84.0
Mon, Apr 23, 2018 00:00 7.3 0.0 62.0
Sun, Apr 22, 2018 23:00 10.3 0.0 46.0
Sun, Apr 22, 2018 22:00 10.4 0.0 44.5
Sun, Apr 22, 2018 21:00 10.8 0.0 47.3
Sun, Apr 22, 2018 20:00 13.9 0.0 41.8
Sun, Apr 22, 2018 19:00 15.6 0.0 34.3


asterix Register now to access more data! asterix